Westrac — WTH4325 — position and weather

sailwx.info

Track history (hours):
 
Tides and Currents Weather Stations Pressure Air Temp Water Temp Dewpoint Dewpoint Depression Visibility Wind Speed Wind Dir Waves Ship Positions

Westrac

Owner: WESTERN TOWBOAT CO, SEATTLE, WA. More information available from US FCC via Universal Licensing System and Coast Guard Vessel Documentation Center.

Last reported at 2015-Jul-04 04:33 UTC. Time now 2015-Jul-04 05:06 UTC.
Position N 47°35' W 122°22'.

Length 23 m; draft 5 m.

Type: Tug. MMSI: 366993010.

Date/timePositionNaut miles runAvg speedWind from/ knotsBaromVisibWave heightAir tempDewpointWater temp
2015-Jul-04 04:33N 47°35' W 122°22'3 2.6
2015-Jul-04 03:33N 47°33' W 122°20'1 1.2
2015-Jul-04 02:33N 47°34' W 122°21'0 0.5
2015-Jul-04 01:33N 47°34' W 122°21'0 0.1
2015-Jul-04 00:33N 47°35' W 122°22'3 3.1
2015-Jul-03 23:33N 47°38' W 122°23'5 2.3
2015-Jul-03 21:33N 47°33' W 122°21'0 0.0
2015-Jul-03 20:33N 47°33' W 122°21'2 1.5
2015-Jul-03 19:24N 47°35' W 122°22'3 3.0
2015-Jul-03 18:30N 47°37' W 122°23'0 0.3
2015-Jul-03 17:33N 47°38' W 122°23'5 0.2
2015-Jul-02 21:33N 47°33' W 122°20'2 2.2
2015-Jul-02 20:33N 47°35' W 122°22'2 1.8
2015-Jul-02 19:33N 47°34' W 122°21'2 1.8
2015-Jul-02 18:33N 47°35' W 122°21'2 0.1
2015-Jul-02 03:04N 47°34' W 122°21'1 1.2
2015-Jul-02 02:33N 47°33' W 122°20'0 0.0
2015-Jul-02 01:32N 47°33' W 122°21'1 1.3
2015-Jul-02 00:33N 47°34' W 122°21'1 0.6
2015-Jul-01 23:33N 47°35' W 122°22'2 2.3
2015-Jul-01 22:31N 47°33' W 122°20'1 0.7
2015-Jul-01 21:33N 47°33' W 122°21'2 2.4
2015-Jul-01 20:33N 47°35' W 122°22'0 0.1
2015-Jul-01 19:33N 47°35' W 122°22'3 2.8
2015-Jul-01 18:33N 47°33' W 122°20'1 1.3
2015-Jul-01 17:33N 47°34' W 122°21'0 0.0
2015-Jul-01 16:33N 47°34' W 122°21'1 0.6
2015-Jul-01 15:33N 47°34' W 122°21'0 0.2
2015-Jul-01 14:33N 47°34' W 122°21'0 0.3
2015-Jul-01 13:33N 47°34' W 122°21'0 0.0
2015-Jul-01 12:34N 47°34' W 122°21'0 0.0
2015-Jul-01 11:31N 47°34' W 122°21'0 0.0
2015-Jul-01 10:33N 47°34' W 122°21'0 0.0
2015-Jul-01 09:33N 47°34' W 122°21'0 0.0
2015-Jul-01 08:33N 47°34' W 122°21'0 0.0
2015-Jul-01 07:33N 47°34' W 122°21'0 0.0
2015-Jul-01 06:33N 47°34' W 122°21'0 0.0
2015-Jul-01 05:33N 47°34' W 122°21'1 0.9
2015-Jul-01 04:33N 47°35' W 122°22'1 0.1
2015-Jun-30 21:33N 47°34' W 122°21'0 0.3
2015-Jun-30 21:32N 47°34' W 122°21'2 1.3
2015-Jun-30 20:10N 47°32' W 122°20'0 0.0
2015-Jun-30 20:10N 47°32' W 122°20'0 0.4
2015-Jun-30 19:33N 47°33' W 122°20'0 2.1
2015-Jun-30 19:30N 47°33' W 122°20'3 3.0
2015-Jun-30 18:33N 47°35' W 122°21'0 0.6
2015-Jun-30 18:30N 47°35' W 122°21'0 0.2
2015-Jun-30 17:33N 47°35' W 122°21'0 3.7
2015-Jun-30 17:29N 47°35' W 122°21'0 0.5
2015-Jun-30 16:33N 47°36' W 122°21'0 0.2
2015-Jun-30 16:23N 47°36' W 122°21'1 0.1
2015-Jun-29 23:39N 47°34' W 122°21'1 7.6
2015-Jun-29 23:33N 47°35' W 122°22'0 9.0
2015-Jun-29 23:32N 47°35' W 122°22'2 2.2
2015-Jun-29 22:33N 47°33' W 122°20'0 0.0
2015-Jun-29 22:23N 47°33' W 122°20'1 1.1
2015-Jun-29 21:31N 47°34' W 122°21'0 4.1
2015-Jun-29 21:28N 47°34' W 122°21'2 1.8
2015-Jun-29 20:33N 47°36' W 122°22'0 7.2
2015-Jun-29 20:33N 47°35' W 122°22'0 0.2
2015-Jun-29 19:33N 47°36' W 122°22'0 3.1
2015-Jun-29 19:32N 47°36' W 122°22'3 2.7
2015-Jun-29 18:33N 47°33' W 122°21'0 0.0
2015-Jun-29 18:32N 47°33' W 122°21'1 1.2
2015-Jun-29 17:33N 47°32' W 122°20'0 1.1
2015-Jun-29 17:27N 47°32' W 122°20'2 2.2
2015-Jun-29 16:33N 47°34' W 122°21'0 9.1
2015-Jun-29 16:32N 47°34' W 122°21'2 1.7
2015-Jun-29 15:33N 47°32' W 122°20'0 0.0
2015-Jun-29 15:31N 47°32' W 122°20'2 2.5
2015-Jun-29 14:34N 47°35' W 122°22'0 4.4
2015-Jun-29 14:32N 47°35' W 122°22'1 0.0
2015-Jun-28 18:22N 47°34' W 122°21'1 1.8
2015-Jun-28 17:33N 47°35' W 122°22'1 0.1
2015-Jun-27 15:26N 47°34' W 122°21'1 0.7
2015-Jun-27 14:27N 47°34' W 122°21'1 0.1
2015-Jun-27 02:32N 47°35' W 122°22'0 0.3
2015-Jun-27 01:24N 47°34' W 122°21'1 0.7
2015-Jun-26 23:28N 47°33' W 122°21'1 0.8
2015-Jun-26 22:35N 47°34' W 122°21'0 7.9
2015-Jun-26 22:33N 47°34' W 122°21'0 7.6
2015-Jun-26 22:30N 47°33' W 122°21'1 0.9
2015-Jun-26 21:33N 47°32' W 122°20'0 0.7
2015-Jun-26 21:24N 47°32' W 122°20'1 0.0
2015-Jun-25 23:33N 47°33' W 122°20'0 0.1
2015-Jun-25 23:18N 47°33' W 122°20'3 3.5
2015-Jun-25 22:33N 47°35' W 122°21'0 1.8
2015-Jun-25 22:32N 47°35' W 122°21'3 2.7
2015-Jun-25 21:33N 47°33' W 122°20'0 3.6
2015-Jun-25 21:32N 47°33' W 122°20'3 2.7
2015-Jun-25 20:33N 47°35' W 122°21'0 0.1
2015-Jun-25 20:30N 47°35' W 122°21'1 0.7
2015-Jun-25 19:34N 47°35' W 122°22'0 8.9
2015-Jun-25 19:33N 47°35' W 122°22'2 2.1
2015-Jun-25 18:34N 47°34' W 122°21'0 7.9
2015-Jun-25 18:33N 47°34' W 122°21'1 0.5
2015-Jun-25 17:33N 47°34' W 122°21'0 0.0
2015-Jun-25 17:33N 47°34' W 122°21'0 0.0
2015-Jun-25 16:33N 47°34' W 122°21'0 0.0
2015-Jun-25 16:33N 47°34' W 122°21'0 0.0
2015-Jun-25 15:33N 47°34' W 122°21'0 0.0
2015-Jun-25 15:33N 47°34' W 122°21'0 0.0
2015-Jun-25 14:33N 47°34' W 122°21'0 0.4
2015-Jun-25 14:32N 47°34' W 122°21'0 0.0
2015-Jun-25 13:33N 47°34' W 122°21'0 0.0
2015-Jun-25 13:31N 47°34' W 122°21'0 0.0
2015-Jun-25 12:33N 47°34' W 122°21'0 0.1
2015-Jun-25 12:30N 47°34' W 122°21'0 0.0
2015-Jun-25 11:33N 47°34' W 122°21'0 0.0
2015-Jun-25 11:30N 47°34' W 122°21'0 0.0
2015-Jun-25 10:33N 47°34' W 122°21'0 0.0
2015-Jun-25 10:30N 47°34' W 122°21'0 0.0
2015-Jun-25 09:33N 47°34' W 122°21'0 0.1
2015-Jun-25 09:29N 47°34' W 122°21'1 1.3
2015-Jun-25 08:33N 47°35' W 122°21'0 0.7
2015-Jun-25 08:29N 47°35' W 122°21'1 1.2
2015-Jun-25 07:32N 47°34' W 122°21'0 0.1
2015-Jun-25 07:28N 47°34' W 122°21'0 0.0
2015-Jun-25 06:30N 47°34' W 122°21'0 0.1
2015-Jun-25 06:28N 47°34' W 122°21'0 0.0
2015-Jun-25 05:47N 47°34' W 122°21'0 0.0
2015-Jun-25 05:29N 47°34' W 122°21'0 0.2
2015-Jun-25 04:33N 47°34' W 122°21'1 8.1
2015-Jun-25 04:26N 47°35' W 122°22'0 0.5
2015-Jun-25 03:33N 47°35' W 122°22'0 0.0
2015-Jun-25 03:25N 47°35' W 122°22'1 1.1
2015-Jun-25 02:33N 47°34' W 122°21'1 4.6
2015-Jun-25 02:25N 47°34' W 122°21'1 1.3
2015-Jun-25 01:32N 47°33' W 122°20'0 0.1
2015-Jun-25 01:29N 47°33' W 122°20'0 0.4
2015-Jun-25 00:32N 47°33' W 122°21'2 5.1
2015-Jun-25 00:12N 47°35' W 122°22'1 1.6
2015-Jun-24 23:33N 47°36' W 122°22'0 7.5
2015-Jun-24 23:32N 47°36' W 122°22'0 0.2
2015-Jun-24 22:33N 47°35' W 122°22'0 1.3
2015-Jun-24 22:31N 47°35' W 122°22'1 0.6
2015-Jun-24 21:33N 47°36' W 122°22'0 4.1
2015-Jun-24 21:30N 47°36' W 122°23'0 0.4
2015-Jun-24 20:32N 47°36' W 122°22'0 2.1
2015-Jun-24 20:19N 47°36' W 122°23'5 7.1
2015-Jun-24 19:33N 47°37' W 122°31'0 0.0
2015-Jun-24 19:30N 47°37' W 122°31'5 5.3
2015-Jun-24 18:33N 47°36' W 122°24'0 7.6
2015-Jun-24 18:29N 47°36' W 122°23'2 1.8
2015-Jun-24 17:32N 47°35' W 122°20'0 0.1
2015-Jun-24 17:13N 47°35' W 122°21'0 0.1
2015-Jun-24 16:33N 47°35' W 122°20'0 0.0
2015-Jun-24 16:27N 47°35' W 122°20'0 0.2
2015-Jun-24 15:33N 47°35' W 122°21'0 0.0
2015-Jun-24 15:31N 47°35' W 122°21'2 1.8
2015-Jun-24 14:32N 47°34' W 122°21'0 5.7
2015-Jun-24 14:31N 47°33' W 122°21'  
Track history (hours):
 
Tides and Currents Weather Stations Pressure Air Temp Water Temp Dewpoint Dewpoint Depression Visibility Wind Speed Wind Dir Waves Ship Positions

Westrac

Owner: WESTERN TOWBOAT CO, SEATTLE, WA. More information available from US FCC via Universal Licensing System and Coast Guard Vessel Documentation Center.

Last reported at 2015-Jul-04 04:33 UTC. Time now 2015-Jul-04 05:06 UTC.
Position N 47°35' W 122°22'.

Length 23 m; draft 5 m.

Type: Tug. MMSI: 366993010.

Date/timePositionNaut miles runAvg speedWind from/ knotsBaromVisibWave heightAir tempDewpointWater temp
2015-Jul-04 04:33N 47°35' W 122°22'3 2.6
2015-Jul-04 03:33N 47°33' W 122°20'1 1.2
2015-Jul-04 02:33N 47°34' W 122°21'0 0.5
2015-Jul-04 01:33N 47°34' W 122°21'0 0.1
2015-Jul-04 00:33N 47°35' W 122°22'3 3.1
2015-Jul-03 23:33N 47°38' W 122°23'5 2.3
2015-Jul-03 21:33N 47°33' W 122°21'0 0.0
2015-Jul-03 20:33N 47°33' W 122°21'2 1.5
2015-Jul-03 19:24N 47°35' W 122°22'3 3.0
2015-Jul-03 18:30N 47°37' W 122°23'0 0.3
2015-Jul-03 17:33N 47°38' W 122°23'5 0.2
2015-Jul-02 21:33N 47°33' W 122°20'2 2.2
2015-Jul-02 20:33N 47°35' W 122°22'2 1.8
2015-Jul-02 19:33N 47°34' W 122°21'2 1.8
2015-Jul-02 18:33N 47°35' W 122°21'2 0.1
2015-Jul-02 03:04N 47°34' W 122°21'1 1.2
2015-Jul-02 02:33N 47°33' W 122°20'0 0.0
2015-Jul-02 01:32N 47°33' W 122°21'1 1.3
2015-Jul-02 00:33N 47°34' W 122°21'1 0.6
2015-Jul-01 23:33N 47°35' W 122°22'2 2.3
2015-Jul-01 22:31N 47°33' W 122°20'1 0.7
2015-Jul-01 21:33N 47°33' W 122°21'2 2.4
2015-Jul-01 20:33N 47°35' W 122°22'0 0.1
2015-Jul-01 19:33N 47°35' W 122°22'3 2.8
2015-Jul-01 18:33N 47°33' W 122°20'1 1.3
2015-Jul-01 17:33N 47°34' W 122°21'0 0.0
2015-Jul-01 16:33N 47°34' W 122°21'1 0.6
2015-Jul-01 15:33N 47°34' W 122°21'0 0.2
2015-Jul-01 14:33N 47°34' W 122°21'0 0.3
2015-Jul-01 13:33N 47°34' W 122°21'0 0.0
2015-Jul-01 12:34N 47°34' W 122°21'0 0.0
2015-Jul-01 11:31N 47°34' W 122°21'0 0.0
2015-Jul-01 10:33N 47°34' W 122°21'0 0.0
2015-Jul-01 09:33N 47°34' W 122°21'0 0.0
2015-Jul-01 08:33N 47°34' W 122°21'0 0.0
2015-Jul-01 07:33N 47°34' W 122°21'0 0.0
2015-Jul-01 06:33N 47°34' W 122°21'0 0.0
2015-Jul-01 05:33N 47°34' W 122°21'1 0.9
2015-Jul-01 04:33N 47°35' W 122°22'1 0.1
2015-Jun-30 21:33N 47°34' W 122°21'0 0.3
2015-Jun-30 21:32N 47°34' W 122°21'2 1.3
2015-Jun-30 20:10N 47°32' W 122°20'0 0.0
2015-Jun-30 20:10N 47°32' W 122°20'0 0.4
2015-Jun-30 19:33N 47°33' W 122°20'0 2.1
2015-Jun-30 19:30N 47°33' W 122°20'3 3.0
2015-Jun-30 18:33N 47°35' W 122°21'0 0.6
2015-Jun-30 18:30N 47°35' W 122°21'0 0.2
2015-Jun-30 17:33N 47°35' W 122°21'0 3.7
2015-Jun-30 17:29N 47°35' W 122°21'0 0.5
2015-Jun-30 16:33N 47°36' W 122°21'0 0.2
2015-Jun-30 16:23N 47°36' W 122°21'1 0.1
2015-Jun-29 23:39N 47°34' W 122°21'1 7.6
2015-Jun-29 23:33N 47°35' W 122°22'0 9.0
2015-Jun-29 23:32N 47°35' W 122°22'2 2.2
2015-Jun-29 22:33N 47°33' W 122°20'0 0.0
2015-Jun-29 22:23N 47°33' W 122°20'1 1.1
2015-Jun-29 21:31N 47°34' W 122°21'0 4.1
2015-Jun-29 21:28N 47°34' W 122°21'2 1.8
2015-Jun-29 20:33N 47°36' W 122°22'0 7.2
2015-Jun-29 20:33N 47°35' W 122°22'0 0.2
2015-Jun-29 19:33N 47°36' W 122°22'0 3.1
2015-Jun-29 19:32N 47°36' W 122°22'3 2.7
2015-Jun-29 18:33N 47°33' W 122°21'0 0.0
2015-Jun-29 18:32N 47°33' W 122°21'1 1.2
2015-Jun-29 17:33N 47°32' W 122°20'0 1.1
2015-Jun-29 17:27N 47°32' W 122°20'2 2.2
2015-Jun-29 16:33N 47°34' W 122°21'0 9.1
2015-Jun-29 16:32N 47°34' W 122°21'2 1.7
2015-Jun-29 15:33N 47°32' W 122°20'0 0.0
2015-Jun-29 15:31N 47°32' W 122°20'2 2.5
2015-Jun-29 14:34N 47°35' W 122°22'0 4.4
2015-Jun-29 14:32N 47°35' W 122°22'1 0.0
2015-Jun-28 18:22N 47°34' W 122°21'1 1.8
2015-Jun-28 17:33N 47°35' W 122°22'1 0.1
2015-Jun-27 15:26N 47°34' W 122°21'1 0.7
2015-Jun-27 14:27N 47°34' W 122°21'1 0.1
2015-Jun-27 02:32N 47°35' W 122°22'0 0.3
2015-Jun-27 01:24N 47°34' W 122°21'1 0.7
2015-Jun-26 23:28N 47°33' W 122°21'1 0.8
2015-Jun-26 22:35N 47°34' W 122°21'0 7.9
2015-Jun-26 22:33N 47°34' W 122°21'0 7.6
2015-Jun-26 22:30N 47°33' W 122°21'1 0.9
2015-Jun-26 21:33N 47°32' W 122°20'0 0.7
2015-Jun-26 21:24N 47°32' W 122°20'1 0.0
2015-Jun-25 23:33N 47°33' W 122°20'0 0.1
2015-Jun-25 23:18N 47°33' W 122°20'3 3.5
2015-Jun-25 22:33N 47°35' W 122°21'0 1.8
2015-Jun-25 22:32N 47°35' W 122°21'3 2.7
2015-Jun-25 21:33N 47°33' W 122°20'0 3.6
2015-Jun-25 21:32N 47°33' W 122°20'3 2.7
2015-Jun-25 20:33N 47°35' W 122°21'0 0.1
2015-Jun-25 20:30N 47°35' W 122°21'1 0.7
2015-Jun-25 19:34N 47°35' W 122°22'0 8.9
2015-Jun-25 19:33N 47°35' W 122°22'2 2.1
2015-Jun-25 18:34N 47°34' W 122°21'0 7.9
2015-Jun-25 18:33N 47°34' W 122°21'1 0.5
2015-Jun-25 17:33N 47°34' W 122°21'0 0.0
2015-Jun-25 17:33N 47°34' W 122°21'0 0.0
2015-Jun-25 16:33N 47°34' W 122°21'0 0.0
2015-Jun-25 16:33N 47°34' W 122°21'0 0.0
2015-Jun-25 15:33N 47°34' W 122°21'0 0.0
2015-Jun-25 15:33N 47°34' W 122°21'0 0.0
2015-Jun-25 14:33N 47°34' W 122°21'0 0.4
2015-Jun-25 14:32N 47°34' W 122°21'0 0.0
2015-Jun-25 13:33N 47°34' W 122°21'0 0.0
2015-Jun-25 13:31N 47°34' W 122°21'0 0.0
2015-Jun-25 12:33N 47°34' W 122°21'0 0.1
2015-Jun-25 12:30N 47°34' W 122°21'0 0.0
2015-Jun-25 11:33N 47°34' W 122°21'0 0.0
2015-Jun-25 11:30N 47°34' W 122°21'0 0.0
2015-Jun-25 10:33N 47°34' W 122°21'0 0.0
2015-Jun-25 10:30N 47°34' W 122°21'0 0.0
2015-Jun-25 09:33N 47°34' W 122°21'0 0.1
2015-Jun-25 09:29N 47°34' W 122°21'1 1.3
2015-Jun-25 08:33N 47°35' W 122°21'0 0.7
2015-Jun-25 08:29N 47°35' W 122°21'1 1.2
2015-Jun-25 07:32N 47°34' W 122°21'0 0.1
2015-Jun-25 07:28N 47°34' W 122°21'0 0.0
2015-Jun-25 06:30N 47°34' W 122°21'0 0.1
2015-Jun-25 06:28N 47°34' W 122°21'0 0.0
2015-Jun-25 05:47N 47°34' W 122°21'0 0.0
2015-Jun-25 05:29N 47°34' W 122°21'0 0.2
2015-Jun-25 04:33N 47°34' W 122°21'1 8.1
2015-Jun-25 04:26N 47°35' W 122°22'0 0.5
2015-Jun-25 03:33N 47°35' W 122°22'0 0.0
2015-Jun-25 03:25N 47°35' W 122°22'1 1.1
2015-Jun-25 02:33N 47°34' W 122°21'1 4.6
2015-Jun-25 02:25N 47°34' W 122°21'1 1.3
2015-Jun-25 01:32N 47°33' W 122°20'0 0.1
2015-Jun-25 01:29N 47°33' W 122°20'0 0.4
2015-Jun-25 00:32N 47°33' W 122°21'2 5.1
2015-Jun-25 00:12N 47°35' W 122°22'1 1.6
2015-Jun-24 23:33N 47°36' W 122°22'0 7.5
2015-Jun-24 23:32N 47°36' W 122°22'0 0.2
2015-Jun-24 22:33N 47°35' W 122°22'0 1.3
2015-Jun-24 22:31N 47°35' W 122°22'1 0.6
2015-Jun-24 21:33N 47°36' W 122°22'0 4.1
2015-Jun-24 21:30N 47°36' W 122°23'0 0.4
2015-Jun-24 20:32N 47°36' W 122°22'0 2.1
2015-Jun-24 20:19N 47°36' W 122°23'5 7.1
2015-Jun-24 19:33N 47°37' W 122°31'0 0.0
2015-Jun-24 19:30N 47°37' W 122°31'5 5.3
2015-Jun-24 18:33N 47°36' W 122°24'0 7.6
2015-Jun-24 18:29N 47°36' W 122°23'2 1.8
2015-Jun-24 17:32N 47°35' W 122°20'0 0.1
2015-Jun-24 17:13N 47°35' W 122°21'0 0.1
2015-Jun-24 16:33N 47°35' W 122°20'0 0.0
2015-Jun-24 16:27N 47°35' W 122°20'0 0.2
2015-Jun-24 15:33N 47°35' W 122°21'0 0.0
2015-Jun-24 15:31N 47°35' W 122°21'2 1.8
2015-Jun-24 14:32N 47°34' W 122°21'0 5.7
2015-Jun-24 14:31N 47°33' W 122°21'  

Dump ship's entire track history